Time;durP1;ratioP1;P1;durP2;ratioP2;P2;SDS_P1;SDS_P2;PMS_P1;PMS_P2;Temp;Humidity;BMP_temperature;BMP_pressure;BME280_temperature;BME280_humidity;BME280_pressure;Samples;Min_cycle;Max_cycle;Signal;HPM_P1;HPM_P2
2022/12/11 00:00:28;;;;;;;32.57;16.40;;;0.30;99.90;;;;;;5088186;28;20216;-72
2022/12/11 00:02:56;;;;;;;30.13;16.03;;;0.30;99.90;;;;;;5088466;28;20686;-73
2022/12/11 00:05:23;;;;;;;41.13;17.53;;;0.30;99.90;;;;;;5098931;28;20526;-73
2022/12/11 00:07:50;;;;;;;42.40;18.27;;;0.30;99.90;;;;;;5093016;28;20206;-72
2022/12/11 00:10:17;;;;;;;34.07;17.37;;;0.20;99.90;;;;;;5091421;28;20254;-75
2022/12/11 00:12:44;;;;;;;36.93;17.93;;;0.20;99.90;;;;;;5097545;28;20216;-73
2022/12/11 00:15:11;;;;;;;31.63;17.07;;;0.20;99.90;;;;;;5096185;28;20204;-73
2022/12/11 00:17:38;;;;;;;36.83;16.03;;;0.20;99.90;;;;;;5091046;28;20211;-72
2022/12/11 00:20:08;;;;;;;38.97;17.63;;;0.20;99.90;;;;;;5102283;28;20218;-74
2022/12/11 00:22:34;;;;;;;37.47;18.00;;;0.20;99.90;;;;;;5090151;28;20204;-72
2022/12/11 00:25:01;;;;;;;33.53;16.47;;;0.20;99.90;;;;;;5088510;28;20196;-72
2022/12/11 00:27:28;;;;;;;37.83;18.00;;;0.20;99.90;;;;;;5090239;28;20291;-71
2022/12/11 00:29:55;;;;;;;37.40;15.70;;;0.20;99.90;;;;;;5097114;28;20236;-74
2022/12/11 00:32:22;;;;;;;40.80;18.43;;;0.20;99.90;;;;;;5091791;28;20208;-72
2022/12/11 00:34:49;;;;;;;38.23;17.73;;;0.20;99.90;;;;;;5089677;28;20622;-73
2022/12/11 00:37:17;;;;;;;37.30;17.27;;;0.20;99.90;;;;;;5092958;28;20206;-72
2022/12/11 00:39:44;;;;;;;39.53;17.23;;;0.20;99.90;;;;;;5101866;28;20562;-72
2022/12/11 00:42:11;;;;;;;35.43;16.67;;;0.20;99.90;;;;;;5084470;28;20226;-73
2022/12/11 00:44:38;;;;;;;38.33;17.77;;;0.20;99.90;;;;;;5100560;28;20207;-71
2022/12/11 00:47:05;;;;;;;39.07;17.53;;;0.20;99.90;;;;;;5097648;28;20300;-71
2022/12/11 00:49:32;;;;;;;35.80;16.87;;;0.20;99.90;;;;;;5097327;28;20299;-71
2022/12/11 00:51:58;;;;;;;38.90;17.00;;;0.20;99.90;;;;;;5101321;28;20216;-70
2022/12/11 00:54:27;;;;;;;36.97;17.80;;;0.20;99.90;;;;;;5091506;28;20196;-72
2022/12/11 00:56:55;;;;;;;36.77;17.63;;;0.10;99.90;;;;;;5087871;28;20210;-71
2022/12/11 00:59:22;;;;;;;35.23;17.30;;;0.10;99.90;;;;;;5084650;28;20213;-71
2022/12/11 01:01:49;;;;;;;33.30;16.37;;;0.10;99.90;;;;;;5078970;28;20196;-71
2022/12/11 01:04:16;;;;;;;33.17;16.10;;;0.10;99.90;;;;;;5085205;28;20601;-71
2022/12/11 01:06:43;;;;;;;32.87;15.83;;;0.10;99.90;;;;;;5094303;28;20666;-70
2022/12/11 01:11:55;;;;;;;35.83;16.47;;;0.00;99.90;;;;;;5071249;28;20718;-71
2022/12/11 01:14:22;;;;;;;33.67;15.03;;;0.10;99.90;;;;;;5079831;28;20572;-69
2022/12/11 01:16:49;;;;;;;33.47;16.13;;;0.10;99.90;;;;;;5082541;28;20205;-72
2022/12/11 01:19:15;;;;;;;36.37;15.87;;;0.00;99.90;;;;;;5095470;28;20699;-71
2022/12/11 01:21:42;;;;;;;31.57;14.93;;;0.10;99.90;;;;;;5099077;28;20200;-71
2022/12/11 01:24:09;;;;;;;31.90;15.10;;;0.10;99.90;;;;;;5089344;28;20201;-71
2022/12/11 01:26:36;;;;;;;33.63;14.93;;;0.10;99.90;;;;;;5091273;28;20572;-72
2022/12/11 01:29:04;;;;;;;32.10;15.07;;;0.00;99.90;;;;;;5099151;28;20204;-71
2022/12/11 01:31:31;;;;;;;32.10;14.97;;;0.10;99.90;;;;;;5083701;28;20213;-69
2022/12/11 01:33:58;;;;;;;32.33;14.63;;;0.00;99.90;;;;;;5094282;28;20219;-71
2022/12/11 01:36:25;;;;;;;28.47;14.17;;;0.00;99.90;;;;;;5105624;28;20295;-71
2022/12/11 01:38:53;;;;;;;26.43;13.43;;;0.00;99.90;;;;;;5090114;28;20279;-71
2022/12/11 01:41:21;;;;;;;27.73;12.90;;;0.00;99.90;;;;;;5099240;28;20230;-70
2022/12/11 01:44:02;;;;;;;29.03;13.70;;;-0.10;99.90;;;;;;5096373;28;20211;-72
2022/12/11 01:46:31;;;;;;;21.23;11.60;;;-0.10;99.90;;;;;;5081911;28;20198;-72
2022/12/11 01:49:00;;;;;;;25.13;12.10;;;-0.20;99.90;;;;;;5092971;28;20236;-71
2022/12/11 01:51:28;;;;;;;23.20;12.33;;;-0.20;99.90;;;;;;5093474;28;20223;-71
2022/12/11 01:54:00;;;;;;;23.70;11.33;;;-0.20;99.90;;;;;;5094621;28;20280;-69
2022/12/11 01:56:27;;;;;;;22.97;11.53;;;-0.20;99.90;;;;;;5090844;28;20207;-72
2022/12/11 01:58:59;;;;;;;22.80;10.90;;;-0.20;99.90;;;;;;5104058;28;20287;-71
2022/12/11 02:01:32;;;;;;;22.10;10.77;;;-0.20;99.90;;;;;;5089018;28;20643;-71
2022/12/11 02:03:59;;;;;;;22.77;11.80;;;-0.20;99.90;;;;;;5085749;28;20201;-70
2022/12/11 02:06:36;;;;;;;22.77;12.00;;;-0.20;99.90;;;;;;5097857;28;20551;-72
2022/12/11 02:09:05;;;;;;;23.57;10.50;;;-0.30;99.90;;;;;;5091340;28;20200;-73
2022/12/11 02:11:43;;;;;;;22.97;11.67;;;-0.30;99.90;;;;;;5079375;28;20491;-72
2022/12/11 02:14:16;;;;;;;23.97;11.33;;;-0.40;99.90;;;;;;5079229;28;20210;-71
2022/12/11 02:16:50;;;;;;;22.87;11.57;;;-0.40;99.90;;;;;;5094877;28;20544;-74
2022/12/11 02:19:30;;;;;;;23.73;11.47;;;-0.40;99.90;;;;;;5098769;28;20226;-72
2022/12/11 02:21:58;;;;;;;24.10;11.83;;;-0.40;99.90;;;;;;5090443;28;20216;-72
2022/12/11 02:24:39;;;;;;;24.73;11.00;;;-0.40;99.90;;;;;;5100114;28;20210;-71
2022/12/11 02:27:22;;;;;;;28.00;12.20;;;-0.40;99.90;;;;;;5094905;28;20208;-71
2022/12/11 02:29:54;;;;;;;25.50;11.97;;;-0.30;99.90;;;;;;5094561;28;20216;-71
2022/12/11 02:32:26;;;;;;;23.40;12.63;;;-0.40;99.90;;;;;;5091391;28;20292;-71
2022/12/11 02:35:00;;;;;;;26.07;12.43;;;-0.40;99.90;;;;;;5089653;28;20737;-71
2022/12/11 02:37:31;;;;;;;25.00;12.73;;;-0.40;99.90;;;;;;5099537;28;20743;-72
2022/12/11 02:39:59;;;;;;;28.37;14.57;;;-0.40;99.90;;;;;;5088007;28;20555;-71
2022/12/11 02:42:31;;;;;;;27.17;14.37;;;-0.30;99.90;;;;;;5093038;28;20573;-71
2022/12/11 02:45:00;;;;;;;28.67;13.20;;;-0.40;99.90;;;;;;5074456;28;20280;-71
2022/12/11 02:47:30;;;;;;;28.07;13.20;;;-0.40;99.90;;;;;;5085010;28;20233;-72
2022/12/11 02:49:59;;;;;;;27.93;13.50;;;-0.40;99.90;;;;;;5092613;28;20916;-73
2022/12/11 02:52:28;;;;;;;26.83;13.93;;;-0.40;99.90;;;;;;5091024;28;20205;-72
2022/12/11 02:54:58;;;;;;;29.97;15.10;;;-0.40;99.90;;;;;;5091778;28;20205;-70
2022/12/11 02:57:31;;;;;;;30.67;14.00;;;-0.40;99.90;;;;;;5105162;28;20205;-71
2022/12/11 02:59:59;;;;;;;29.73;14.03;;;-0.40;99.90;;;;;;5107228;28;20315;-71
2022/12/11 03:02:26;;;;;;;30.97;14.57;;;-0.40;99.90;;;;;;5103790;28;20692;-71
2022/12/11 03:04:53;;;;;;;31.20;15.23;;;-0.40;99.90;;;;;;5106682;28;20291;-71
2022/12/11 03:07:24;;;;;;;24.93;13.20;;;-0.40;99.90;;;;;;5105566;28;20224;-72
2022/12/11 03:09:51;;;;;;;28.43;14.07;;;-0.40;99.90;;;;;;5109834;28;20240;-72
2022/12/11 03:12:21;;;;;;;27.13;13.73;;;-0.40;99.90;;;;;;5083785;28;20223;-72
2022/12/11 03:14:49;;;;;;;29.70;14.30;;;-0.50;99.90;;;;;;5089469;28;20207;-71
2022/12/11 03:17:21;;;;;;;29.50;13.60;;;-0.40;99.90;;;;;;5093125;28;20201;-71
2022/12/11 03:19:55;;;;;;;25.73;12.87;;;-0.50;99.90;;;;;;5100042;28;20230;-72
2022/12/11 03:22:26;;;;;;;25.30;13.63;;;-0.50;99.90;;;;;;5098784;28;20206;-72
2022/12/11 03:25:01;;;;;;;28.13;13.83;;;-0.50;99.90;;;;;;5099501;28;20200;-71
2022/12/11 03:27:33;;;;;;;27.10;13.00;;;-0.50;99.90;;;;;;5102243;28;20226;-70
2022/12/11 03:30:04;;;;;;;23.37;12.00;;;-0.50;99.90;;;;;;5105967;28;20223;-71
2022/12/11 03:32:39;;;;;;;25.40;13.00;;;-0.50;99.90;;;;;;5106336;28;20260;-71
2022/12/11 03:35:12;;;;;;;25.17;13.00;;;-0.50;99.90;;;;;;5104397;28;20271;-70
2022/12/11 03:37:42;;;;;;;25.53;13.30;;;-0.60;99.90;;;;;;5107376;28;20221;-70
2022/12/11 03:40:15;;;;;;;22.87;12.30;;;-0.60;99.90;;;;;;5107018;28;20223;-70
2022/12/11 03:42:43;;;;;;;30.50;13.97;;;-0.60;99.90;;;;;;5106694;28;20196;-71
2022/12/11 03:45:13;;;;;;;20.00;11.30;;;-0.60;99.90;;;;;;5112788;28;20716;-72
2022/12/11 03:47:43;;;;;;;25.00;11.73;;;-0.60;99.90;;;;;;5105029;28;20395;-71
2022/12/11 03:50:12;;;;;;;19.50;10.77;;;-0.60;99.90;;;;;;5097689;28;20291;-71
2022/12/11 03:52:41;;;;;;;22.83;11.03;;;-0.60;99.90;;;;;;5095141;28;20274;-71
2022/12/11 03:55:09;;;;;;;24.77;12.50;;;-0.60;99.90;;;;;;5098811;28;20299;-70
2022/12/11 03:57:37;;;;;;;22.30;12.03;;;-0.60;99.90;;;;;;5096138;28;20208;-72
2022/12/11 04:00:05;;;;;;;23.30;12.00;;;-0.60;99.90;;;;;;5089473;28;20313;-73
2022/12/11 04:02:32;;;;;;;22.23;12.10;;;-0.60;99.90;;;;;;5087000;28;20665;-71
2022/12/11 04:05:00;;;;;;;21.90;11.50;;;-0.60;99.90;;;;;;5103929;28;20207;-72
2022/12/11 04:07:27;;;;;;;22.50;11.80;;;-0.60;99.90;;;;;;5107892;28;20209;-72
2022/12/11 04:09:55;;;;;;;24.43;12.30;;;-0.60;99.90;;;;;;5090087;28;20328;-71
2022/12/11 04:12:21;;;;;;;20.77;11.73;;;-0.60;99.90;;;;;;5113745;28;20269;-71
2022/12/11 04:15:02;;;;;;;26.87;12.60;;;-0.60;99.90;;;;;;5095334;28;20287;-70
2022/12/11 04:25:44;;;;;;;25.47;12.70;;;-0.70;99.90;;;;;;5089226;28;20245;-72
2022/12/11 04:28:11;;;;;;;25.60;12.17;;;-0.70;99.90;;;;;;5091698;28;20562;-72
2022/12/11 04:30:38;;;;;;;26.73;13.53;;;-0.70;99.90;;;;;;5093095;28;20220;-69
2022/12/11 04:33:05;;;;;;;24.27;12.30;;;-0.70;99.90;;;;;;5090564;28;20717;-72
2022/12/11 04:35:34;;;;;;;23.20;11.20;;;-0.70;99.90;;;;;;5089302;28;20220;-71
2022/12/11 04:38:01;;;;;;;25.30;12.17;;;-0.70;99.90;;;;;;5088567;28;20295;-73
2022/12/11 04:40:27;;;;;;;21.73;12.27;;;-0.70;99.90;;;;;;5093465;28;20650;-71
2022/12/11 04:42:54;;;;;;;21.77;12.23;;;-0.70;99.90;;;;;;5090930;28;20197;-70
2022/12/11 04:45:21;;;;;;;23.70;12.37;;;-0.80;99.90;;;;;;5089931;28;20635;-71
2022/12/11 04:47:48;;;;;;;26.23;13.00;;;-0.80;99.90;;;;;;5090330;28;20323;-72
2022/12/11 04:50:16;;;;;;;23.10;12.33;;;-0.80;99.90;;;;;;5094236;28;20225;-72
2022/12/11 04:52:45;;;;;;;24.40;12.73;;;-0.80;99.90;;;;;;5109075;28;20228;-71
2022/12/11 04:55:12;;;;;;;23.30;11.57;;;-0.80;99.90;;;;;;5092461;28;20597;-70
2022/12/11 04:57:39;;;;;;;26.93;12.33;;;-0.80;99.90;;;;;;5099777;28;20299;-72
2022/12/11 05:00:09;;;;;;;21.20;11.63;;;-0.80;99.90;;;;;;5101235;28;20231;-73
2022/12/11 05:02:37;;;;;;;25.83;12.57;;;-0.80;99.90;;;;;;5090161;28;20232;-72
2022/12/11 05:05:05;;;;;;;23.43;12.57;;;-0.80;99.90;;;;;;5095908;28;20201;-72
2022/12/11 05:07:32;;;;;;;20.97;12.07;;;-0.80;99.90;;;;;;5078140;28;20209;-70
2022/12/11 05:10:01;;;;;;;24.30;12.13;;;-0.80;99.90;;;;;;5074501;28;20223;-73
2022/12/11 05:12:28;;;;;;;25.20;12.67;;;-0.80;99.90;;;;;;5089542;28;20575;-73
2022/12/11 05:14:55;;;;;;;29.83;13.63;;;-0.80;99.90;;;;;;5083296;28;20211;-72
2022/12/11 05:17:22;;;;;;;28.87;14.10;;;-0.80;99.90;;;;;;5089490;28;20718;-71
2022/12/11 05:19:50;;;;;;;23.33;12.63;;;-0.80;99.90;;;;;;5095092;28;20215;-72
2022/12/11 05:22:18;;;;;;;22.63;12.73;;;-0.80;99.90;;;;;;5089366;28;20205;-74
2022/12/11 05:24:45;;;;;;;21.80;12.37;;;-0.80;99.90;;;;;;5088757;28;20204;-71
2022/12/11 05:27:14;;;;;;;21.10;11.87;;;-0.80;99.90;;;;;;5082452;28;20208;-73
2022/12/11 05:29:41;;;;;;;20.83;11.83;;;-0.80;99.90;;;;;;5086404;28;20265;-72
2022/12/11 05:32:08;;;;;;;22.20;10.70;;;-0.90;99.90;;;;;;5101936;28;20252;-70
2022/12/11 05:34:34;;;;;;;21.50;10.63;;;-0.80;99.90;;;;;;5084850;28;20223;-70
2022/12/11 05:37:02;;;;;;;20.50;11.27;;;-0.90;99.90;;;;;;5097640;28;20206;-71
2022/12/11 05:39:29;;;;;;;22.67;11.23;;;-0.90;99.90;;;;;;5090245;28;20204;-71
2022/12/11 05:41:55;;;;;;;19.37;11.37;;;-0.90;99.90;;;;;;5096908;28;20238;-72
2022/12/11 05:44:24;;;;;;;23.50;13.23;;;-0.90;99.90;;;;;;5084908;28;20211;-72
2022/12/11 05:46:51;;;;;;;26.47;12.67;;;-0.90;99.90;;;;;;5098595;28;20204;-72
2022/12/11 05:49:17;;;;;;;22.33;11.77;;;-0.90;99.90;;;;;;5087078;28;20224;-72
2022/12/11 05:51:44;;;;;;;23.37;12.70;;;-0.90;99.90;;;;;;5089272;28;20304;-70
2022/12/11 05:54:11;;;;;;;25.87;13.27;;;-0.90;99.90;;;;;;5097470;28;20211;-72
2022/12/11 05:56:38;;;;;;;18.17;9.73;;;-0.90;99.90;;;;;;5094039;28;20200;-72
2022/12/11 05:59:06;;;;;;;23.27;11.57;;;-0.80;99.90;;;;;;5089392;28;20219;-71
2022/12/11 06:01:36;;;;;;;21.27;11.33;;;-0.80;99.90;;;;;;5093859;28;20211;-72
2022/12/11 06:04:05;;;;;;;16.03;9.33;;;-0.90;99.90;;;;;;5090192;28;21461;-75
2022/12/11 06:06:33;;;;;;;18.37;10.27;;;-1.00;99.90;;;;;;5081142;28;20212;-75
2022/12/11 06:09:00;;;;;;;14.27;8.97;;;-1.00;99.90;;;;;;5088581;28;20292;-74
2022/12/11 06:11:29;;;;;;;18.07;9.83;;;-1.00;99.90;;;;;;5087972;28;20217;-74
2022/12/11 06:13:56;;;;;;;15.77;9.03;;;-1.00;99.90;;;;;;5087392;28;20203;-72
2022/12/11 06:16:24;;;;;;;18.13;8.70;;;-1.10;99.90;;;;;;5088387;28;20783;-71
2022/12/11 06:18:52;;;;;;;19.30;9.60;;;-1.10;99.90;;;;;;5097582;28;20587;-76
2022/12/11 06:21:21;;;;;;;18.27;8.97;;;-1.10;99.90;;;;;;5084353;28;20208;-71
2022/12/11 06:23:51;;;;;;;18.50;9.30;;;-1.20;99.90;;;;;;5097396;28;20211;-75
2022/12/11 06:26:19;;;;;;;14.13;8.27;;;-1.20;99.90;;;;;;5081491;28;20300;-76
2022/12/11 06:28:47;;;;;;;16.40;8.90;;;-1.20;99.90;;;;;;5094135;28;20652;-74
2022/12/11 06:31:14;;;;;;;17.53;9.17;;;-1.20;99.90;;;;;;5093629;28;20240;-75
2022/12/11 06:33:41;;;;;;;17.00;9.27;;;-1.10;99.90;;;;;;5096352;28;20286;-75
2022/12/11 06:36:12;;;;;;;16.17;9.90;;;-1.20;99.90;;;;;;5091515;28;20299;-76
2022/12/11 06:38:39;;;;;;;17.90;9.63;;;-1.20;99.90;;;;;;5092698;28;20287;-73
2022/12/11 06:41:07;;;;;;;19.50;10.30;;;-1.20;99.90;;;;;;5082641;28;20292;-73
2022/12/11 06:43:34;;;;;;;17.73;9.57;;;-1.20;99.90;;;;;;5088566;28;20285;-73
2022/12/11 06:46:04;;;;;;;17.23;10.00;;;-1.20;99.90;;;;;;5094102;28;20740;-72
2022/12/11 06:48:31;;;;;;;16.83;10.50;;;-1.20;99.90;;;;;;5087401;28;20228;-73
2022/12/11 06:50:58;;;;;;;19.50;10.20;;;-1.20;99.90;;;;;;5091152;28;20230;-74
2022/12/11 06:53:26;;;;;;;17.40;9.33;;;-1.20;99.90;;;;;;5099407;28;20204;-71
2022/12/11 06:55:53;;;;;;;14.90;7.97;;;-1.20;99.90;;;;;;5088854;28;20205;-71
2022/12/11 06:58:20;;;;;;;17.53;9.57;;;-1.20;99.90;;;;;;5096173;28;20219;-72
2022/12/11 07:00:47;;;;;;;14.37;8.80;;;-1.20;99.90;;;;;;5088214;28;20215;-71
2022/12/11 07:03:14;;;;;;;12.83;8.30;;;-1.20;99.90;;;;;;5080735;28;20205;-71
2022/12/11 07:05:41;;;;;;;16.23;9.17;;;-1.30;99.90;;;;;;5084393;28;20270;-72
2022/12/11 07:08:08;;;;;;;15.23;9.53;;;-1.30;99.90;;;;;;5083233;28;20208;-71
2022/12/11 07:10:36;;;;;;;16.87;10.00;;;-1.30;99.90;;;;;;5082958;28;20201;-72
2022/12/11 07:13:03;;;;;;;18.33;10.10;;;-1.30;99.90;;;;;;5085407;28;20310;-73
2022/12/11 07:15:30;;;;;;;14.77;8.23;;;-1.40;99.90;;;;;;5091399;28;20665;-73
2022/12/11 07:17:56;;;;;;;14.23;8.27;;;-1.30;99.90;;;;;;5092696;28;20220;-74
2022/12/11 07:20:23;;;;;;;15.70;8.63;;;-1.30;99.90;;;;;;5096139;28;20208;-72
2022/12/11 07:22:50;;;;;;;15.60;9.20;;;-1.30;99.90;;;;;;5090475;28;20592;-70
2022/12/11 07:25:17;;;;;;;13.93;8.73;;;-1.30;99.90;;;;;;5087006;28;20264;-72
2022/12/11 07:27:46;;;;;;;20.13;11.90;;;-1.30;99.90;;;;;;5084334;28;20452;-70
2022/12/11 07:30:14;;;;;;;19.67;10.35;;;-1.30;99.90;;;;;;5080608;28;20934;-71
2022/12/11 07:32:41;;;;;;;17.73;10.13;;;-1.30;99.90;;;;;;5083586;28;20247;-68
2022/12/11 07:35:09;;;;;;;16.37;10.13;;;-1.30;99.90;;;;;;5081014;28;20548;-71
2022/12/11 07:37:37;;;;;;;16.47;9.83;;;-1.20;99.90;;;;;;5076766;28;20668;-71
2022/12/11 07:40:04;;;;;;;20.83;13.63;;;-1.20;99.90;;;;;;5082675;28;21179;-70
2022/12/11 07:42:31;;;;;;;18.90;11.10;;;-1.20;99.90;;;;;;5085554;28;20340;-65
2022/12/11 07:44:59;;;;;;;17.63;9.97;;;-1.10;99.90;;;;;;5082272;28;20201;-67
2022/12/11 07:47:26;;;;;;;16.93;10.23;;;-1.10;99.90;;;;;;5080404;28;20240;-67
2022/12/11 07:49:53;;;;;;;15.37;9.70;;;-1.10;99.90;;;;;;5081651;28;20200;-69
2022/12/11 07:52:20;;;;;;;15.20;9.30;;;-1.20;99.90;;;;;;5080818;28;20374;-68
2022/12/11 07:54:47;;;;;;;16.07;9.60;;;-1.20;99.90;;;;;;5082975;28;20200;-69
2022/12/11 07:57:14;;;;;;;15.40;9.23;;;-1.20;99.90;;;;;;5084305;28;20300;-68
2022/12/11 07:59:41;;;;;;;17.07;9.73;;;-1.20;99.90;;;;;;5092193;28;20274;-68
2022/12/11 08:02:11;;;;;;;15.77;9.63;;;-1.20;99.90;;;;;;5090996;28;20200;-68
2022/12/11 08:04:38;;;;;;;17.40;8.70;;;-1.20;99.90;;;;;;5091967;28;20552;-68
2022/12/11 08:07:05;;;;;;;15.50;9.73;;;-1.20;99.90;;;;;;5085797;28;20210;-67
2022/12/11 08:09:32;;;;;;;17.90;10.18;;;-1.20;99.90;;;;;;5090575;28;20453;-71
2022/12/11 08:11:59;;;;;;;20.25;12.18;;;-1.20;99.90;;;;;;5058350;28;20446;-67
2022/12/11 08:14:26;;;;;;;13.80;9.20;;;-1.20;99.90;;;;;;5088369;28;20292;-68
2022/12/11 08:16:52;;;;;;;15.47;8.80;;;-1.30;99.90;;;;;;5078476;28;20205;-69
2022/12/11 08:19:21;;;;;;;12.27;7.73;;;-1.30;99.90;;;;;;5082400;28;20208;-68
2022/12/11 08:21:47;;;;;;;14.80;8.67;;;-1.30;99.90;;;;;;5080313;28;20657;-70
2022/12/11 08:24:19;;;;;;;15.47;9.27;;;-1.40;99.90;;;;;;5082929;28;20209;-70
2022/12/11 08:26:46;;;;;;;15.87;8.70;;;-1.30;99.90;;;;;;5083829;28;20648;-70
2022/12/11 08:29:13;;;;;;;15.10;9.13;;;-1.40;99.90;;;;;;5082827;28;20247;-70
2022/12/11 08:31:41;;;;;;;13.17;9.03;;;-1.40;99.90;;;;;;5075491;28;20221;-69
2022/12/11 08:34:12;;;;;;;15.57;8.33;;;-1.40;99.90;;;;;;5079978;28;20216;-67
2022/12/11 08:36:41;;;;;;;16.20;8.97;;;-1.40;99.90;;;;;;5088037;28;20268;-71
2022/12/11 08:39:07;;;;;;;17.43;9.50;;;-1.40;99.90;;;;;;5084817;28;20215;-68
2022/12/11 08:41:34;;;;;;;15.17;8.27;;;-1.30;99.90;;;;;;5080987;28;20205;-68
2022/12/11 08:44:01;;;;;;;17.63;9.23;;;-1.30;99.90;;;;;;5092871;28;20222;-67
2022/12/11 08:46:30;;;;;;;15.20;9.47;;;-1.30;99.90;;;;;;5082379;28;20192;-69
2022/12/11 08:48:57;;;;;;;16.53;8.33;;;-1.20;99.90;;;;;;5077702;28;20237;-67
2022/12/11 08:51:27;;;;;;;14.30;8.77;;;-1.20;99.90;;;;;;5089203;28;20232;-69
2022/12/11 08:53:56;;;;;;;16.53;8.50;;;-1.20;99.90;;;;;;5090365;28;20211;-68
2022/12/11 08:56:23;;;;;;;14.13;8.30;;;-1.20;99.90;;;;;;5077827;28;20559;-71
2022/12/11 08:58:51;;;;;;;18.63;11.57;;;-1.10;99.90;;;;;;5085938;28;20517;-66
2022/12/11 09:01:21;;;;;;;15.20;8.70;;;-1.20;99.90;;;;;;5078571;28;20588;-67
2022/12/11 09:03:49;;;;;;;14.57;8.87;;;-1.20;99.90;;;;;;5080409;28;20589;-67
2022/12/11 09:06:17;;;;;;;17.40;11.60;;;-1.10;99.90;;;;;;5076553;28;20795;-66
2022/12/11 09:08:47;;;;;;;18.23;9.93;;;-1.10;99.90;;;;;;5078271;28;20311;-71
2022/12/11 09:11:18;;;;;;;17.67;9.53;;;-1.10;99.90;;;;;;5078413;28;20219;-67
2022/12/11 09:13:47;;;;;;;18.13;10.80;;;-1.10;99.90;;;;;;5082510;28;20858;-71
2022/12/11 09:16:19;;;;;;;15.27;9.03;;;-1.10;99.90;;;;;;5075277;28;20216;-72
2022/12/11 09:18:48;;;;;;;15.10;9.30;;;-1.10;99.90;;;;;;5075457;28;20201;-71
2022/12/11 09:21:16;;;;;;;15.73;8.03;;;-1.10;99.90;;;;;;5073624;28;20216;-76
2022/12/11 09:23:44;;;;;;;24.37;11.60;;;-1.10;99.90;;;;;;5082907;28;20444;-69
2022/12/11 09:26:14;;;;;;;14.53;8.20;;;-1.00;99.90;;;;;;5089704;28;21581;-72
2022/12/11 09:28:43;;;;;;;14.97;8.47;;;-1.00;99.90;;;;;;5077761;28;20637;-75
2022/12/11 09:31:12;;;;;;;15.77;8.37;;;-1.00;99.90;;;;;;5076520;28;20208;-75
2022/12/11 09:33:39;;;;;;;14.77;8.17;;;-1.00;99.90;;;;;;5072056;28;20201;-71
2022/12/11 09:36:07;;;;;;;14.30;7.57;;;-0.90;99.90;;;;;;5091976;28;20204;-72
2022/12/11 09:38:35;;;;;;;14.77;7.70;;;-0.90;99.90;;;;;;5099596;28;20396;-72
2022/12/11 09:41:02;;;;;;;15.10;7.57;;;-0.90;99.90;;;;;;5100775;28;20294;-65
2022/12/11 09:43:37;;;;;;;13.97;7.83;;;-0.90;99.90;;;;;;5086141;28;20205;-71
2022/12/11 09:46:10;;;;;;;12.93;7.73;;;-1.00;99.90;;;;;;5095751;28;20189;-73
2022/12/11 09:48:39;;;;;;;12.27;8.07;;;-1.00;99.90;;;;;;5095410;28;20235;-74
2022/12/11 09:51:14;;;;;;;14.53;8.07;;;-1.00;99.90;;;;;;5093762;28;20341;-74
2022/12/11 09:53:41;;;;;;;14.80;8.57;;;-1.00;99.90;;;;;;5091827;28;20636;-71
2022/12/11 09:56:17;;;;;;;12.07;7.67;;;-1.00;99.90;;;;;;5096604;28;20225;-71
2022/12/11 09:58:57;;;;;;;14.37;8.13;;;-1.00;99.90;;;;;;5109626;28;20223;-74
2022/12/11 10:01:34;;;;;;;15.97;8.27;;;-1.00;99.90;;;;;;5099662;28;20255;-72
2022/12/11 10:04:36;;;;;;;14.17;8.23;;;-1.00;99.90;;;;;;5099251;28;20203;-71
2022/12/11 10:07:10;;;;;;;12.47;8.37;;;-1.10;99.90;;;;;;5108434;28;20219;-71
2022/12/11 10:09:46;;;;;;;13.87;7.83;;;-1.00;99.90;;;;;;5100985;28;20211;-71
2022/12/11 10:12:24;;;;;;;14.87;8.33;;;-1.00;99.90;;;;;;5098322;28;20258;-71
2022/12/11 10:15:08;;;;;;;15.93;8.50;;;-1.00;99.90;;;;;;5108838;28;20264;-72
2022/12/11 10:17:40;;;;;;;15.17;8.83;;;-1.00;99.90;;;;;;5108289;28;20210;-73
2022/12/11 10:20:20;;;;;;;12.83;7.73;;;-1.00;99.90;;;;;;5106947;28;20209;-73
2022/12/11 10:22:48;;;;;;;14.70;8.00;;;-1.00;99.90;;;;;;5099024;28;20239;-73
2022/12/11 10:25:20;;;;;;;13.67;8.23;;;-1.00;99.90;;;;;;5119904;27;20227;-72
2022/12/11 10:27:47;;;;;;;12.93;7.87;;;-0.90;99.90;;;;;;5097076;28;20197;-71
2022/12/11 10:30:16;;;;;;;13.53;8.27;;;-0.90;99.90;;;;;;5083204;28;20300;-72
2022/12/11 10:32:51;;;;;;;12.47;7.40;;;-0.90;99.90;;;;;;5086998;28;20621;-74
2022/12/11 10:35:26;;;;;;;15.33;8.87;;;-0.90;99.90;;;;;;5094952;28;20641;-73
2022/12/11 10:37:58;;;;;;;14.97;8.10;;;-0.90;99.90;;;;;;5100874;28;20192;-76
2022/12/11 10:40:25;;;;;;;12.20;8.17;;;-1.00;99.90;;;;;;5094896;28;20207;-72
2022/12/11 10:42:53;;;;;;;14.53;7.87;;;-0.90;99.90;;;;;;5100429;28;20220;-71
2022/12/11 10:45:20;;;;;;;14.63;7.80;;;-0.90;99.90;;;;;;5096501;28;20209;-71
2022/12/11 10:47:49;;;;;;;14.40;7.73;;;-0.90;99.90;;;;;;5088040;28;20236;-72
2022/12/11 10:50:26;;;;;;;12.80;7.10;;;-0.90;99.90;;;;;;5087784;28;20253;-72
2022/12/11 10:52:53;;;;;;;11.43;6.97;;;-0.90;99.90;;;;;;5107086;28;20287;-73
2022/12/11 10:55:24;;;;;;;11.33;6.43;;;-0.90;99.90;;;;;;5106160;28;20216;-73
2022/12/11 10:57:57;;;;;;;11.67;6.90;;;-0.90;99.90;;;;;;5094658;28;20673;-71
2022/12/11 11:00:31;;;;;;;11.93;7.13;;;-0.90;99.90;;;;;;5092526;28;20766;-69
2022/12/11 11:02:59;;;;;;;11.17;7.30;;;-0.90;99.90;;;;;;5090638;28;20196;-70
2022/12/11 11:05:29;;;;;;;9.13;6.40;;;-0.90;99.90;;;;;;5098926;28;20909;-71
2022/12/11 11:08:14;;;;;;;11.47;7.70;;;-0.90;99.90;;;;;;5103396;28;20264;-68
2022/12/11 11:10:55;;;;;;;10.47;6.17;;;-0.90;99.90;;;;;;5112466;28;20215;-68
2022/12/11 11:13:24;;;;;;;10.97;6.63;;;-0.90;99.90;;;;;;5112873;28;20197;-69
2022/12/11 11:16:00;;;;;;;10.73;7.30;;;-0.90;99.90;;;;;;5116540;28;20993;-67
2022/12/11 11:18:29;;;;;;;15.80;7.87;;;-0.90;99.90;;;;;;5108840;28;20213;-68
2022/12/11 11:20:56;;;;;;;10.97;6.73;;;-0.80;99.90;;;;;;5098665;28;20215;-69
2022/12/11 11:23:25;;;;;;;12.20;6.83;;;-0.80;99.90;;;;;;5105712;28;20217;-68
2022/12/11 11:25:54;;;;;;;12.70;7.20;;;-0.80;99.90;;;;;;5104835;28;20264;-70
2022/12/11 11:28:25;;;;;;;11.20;6.53;;;-0.80;99.90;;;;;;5108839;28;20285;-68
2022/12/11 11:31:03;;;;;;;10.73;6.57;;;-0.80;99.90;;;;;;5112460;28;20236;-68
2022/12/11 11:33:32;;;;;;;10.57;6.67;;;-0.80;99.90;;;;;;5104286;28;20284;-68
2022/12/11 11:36:02;;;;;;;11.07;6.83;;;-0.80;99.90;;;;;;5101444;28;20228;-69
2022/12/11 11:38:33;;;;;;;10.70;6.90;;;-0.80;99.90;;;;;;5112787;28;20210;-69
2022/12/11 11:41:08;;;;;;;15.87;7.70;;;-0.70;99.90;;;;;;5111906;28;20185;-68
2022/12/11 11:43:40;;;;;;;12.70;7.27;;;-0.60;99.90;;;;;;5119876;28;20275;-69
2022/12/11 11:46:13;;;;;;;16.03;8.53;;;-0.70;99.90;;;;;;5119031;28;20219;-69
2022/12/11 11:48:51;;;;;;;14.23;8.23;;;-0.60;99.90;;;;;;5112057;28;20242;-70
2022/12/11 11:51:24;;;;;;;11.63;7.37;;;-0.70;99.90;;;;;;5107922;28;20267;-70
2022/12/11 11:53:56;;;;;;;11.53;6.90;;;-0.60;99.90;;;;;;5112993;28;20285;-68
2022/12/11 11:56:27;;;;;;;10.00;7.13;;;-0.60;99.90;;;;;;5106784;28;20208;-69
2022/12/11 11:59:11;;;;;;;11.10;6.80;;;-0.60;99.90;;;;;;5113654;28;20212;-70
2022/12/11 12:01:41;;;;;;;13.17;7.70;;;-0.70;99.90;;;;;;5105751;28;20191;-67
2022/12/11 12:04:10;;;;;;;11.63;7.17;;;-0.60;99.90;;;;;;5116043;28;20220;-68
2022/12/11 12:06:50;;;;;;;10.60;6.60;;;-0.70;99.90;;;;;;5118992;28;20234;-69
2022/12/11 12:09:28;;;;;;;11.17;7.20;;;-0.70;99.90;;;;;;5114165;28;20339;-69
2022/12/11 12:12:04;;;;;;;15.20;7.80;;;-0.80;99.90;;;;;;5113410;28;20188;-67
2022/12/11 12:14:38;;;;;;;13.20;8.00;;;-0.70;99.90;;;;;;5108929;28;20208;-70
2022/12/11 12:17:15;;;;;;;12.57;8.23;;;-0.80;99.90;;;;;;5109603;28;20196;-69
2022/12/11 12:19:51;;;;;;;17.87;8.37;;;-0.80;99.90;;;;;;5104229;28;20288;-71
2022/12/11 12:22:31;;;;;;;14.77;9.00;;;-0.80;99.90;;;;;;5098116;28;20220;-72
2022/12/11 12:25:10;;;;;;;12.50;8.30;;;-0.70;99.90;;;;;;5094646;28;20197;-68
2022/12/11 12:27:44;;;;;;;12.73;8.20;;;-0.70;99.90;;;;;;5108520;28;20192;-69
2022/12/11 12:30:14;;;;;;;14.77;7.93;;;-0.70;99.90;;;;;;5102316;28;20202;-69
2022/12/11 12:32:52;;;;;;;13.60;7.33;;;-0.70;99.90;;;;;;5105441;28;20269;-70
2022/12/11 12:35:34;;;;;;;13.47;7.90;;;-0.70;99.90;;;;;;5092269;28;20572;-69
2022/12/11 12:38:10;;;;;;;12.03;7.53;;;-0.70;99.90;;;;;;5104432;28;20200;-67
2022/12/11 12:40:45;;;;;;;13.87;7.87;;;-0.70;99.90;;;;;;5097827;28;20261;-70
2022/12/11 12:43:45;;;;;;;15.77;8.53;;;-0.70;99.90;;;;;;5104557;28;20193;-68
2022/12/11 12:46:23;;;;;;;13.40;7.33;;;-0.80;99.90;;;;;;5106395;28;20240;-69
2022/12/11 12:48:52;;;;;;;11.03;7.07;;;-0.60;99.90;;;;;;5111810;28;20235;-70
2022/12/11 12:51:21;;;;;;;12.90;7.77;;;-0.80;99.90;;;;;;5100893;28;20205;-68
2022/12/11 12:53:55;;;;;;;14.40;7.70;;;-0.80;99.90;;;;;;5103075;28;20260;-68
2022/12/11 12:56:23;;;;;;;12.73;8.10;;;-0.70;99.90;;;;;;5109793;28;20228;-68